Sedona, AZ

6:01 PM MST on August 27, 2015 (GMT -0700)
CoffeePot Cottages | | Change Station
CLOSE
Current Station
Personal Weather Station
Location: Sedona, AZ
Elevation: 4536 ft
Nearby Weather Stations

Elev 4536 ft 34.88 °N, 111.79 °W | Updated 10 seconds ago

Partly Cloudy
Partly Cloudy
73.7 °F
Feels Like 75 °F
N
0.0
Wind Variable Wind from West
Gusts 0.0 mph

Today
High -- | Low -- °F
--% Chance of Precip.
Yesterday
High -- | Low -- °F
Precip. -- in
5:56 AM 7:00 PM
Waxing Gibbous, 96% visible
Pressure 29.99 in
Visibility 10.0 miles
Clouds Clear
Heat Index 75 °F
Dew Point 64 °F
Humidity 73%
Rainfall 0.04 in
Snow Depth Not available.
UV 1 out of 12
Pollen 2.40 out of 12
Air Quality Not available.
Flu Activity Not available.
METAR KPRC 280053Z 19005KT 10SM CLR 24/16 A3021 RMK AO2 SLP154 T02440161
Pressure 29.99 in
Visibility 10.0 miles
Clouds Clear
Heat Index 75 °F
Dew Point 64 °F
Humidity 73%
Rainfall 0.04 in
Snow Depth Not available.
UV 1 out of 12
Pollen 2.40 out of 12
Air Quality Not available.
Flu Activity Not available.
METAR KPRC 280053Z 19005KT 10SM CLR 24/16 A3021 RMK AO2 SLP154 T02440161

10-Day Weather Forecast

×

Almanac

Astronomy

Aug. 27, 2015 Rise Set
Actual Time
Civil Twilight
Nautical Twilight
Astronomical Twilight
Moon
Length of Visible Light
Length of Day
Tomorrow will be .
, % of the Moon is Illuminated

Today's Extremes

State Highs State Lows

Community

WunderPhotos

Upload Photos

1,850,288 photos uploaded!

WunderBlogs® & News

Nearby

Air Quality

  Air Quality AQ Index Pollutant
Not available.

Snow Depth

Station Depth Elevation

Earthquake Activity

City Distance Mag. Time & Date
Minimum magnitude displayed is 2.5.

Coastal Water Temperatures

Place Temperature

Stations

Nearby Weather Stations

Station Location Temp. Windchill Dew Point Humidity Wind Precip. Elev Updated Type
                   
Flood Watch / Flood Statement
Statement as of 6:00 PM MDT on August 27, 2015

... The small stream Flood Advisory has been cancelled for west
central Yavapai County...

Heavy rain has ended and the high water is receding north of
Bagdad... and is no longer expected to pose a threat. Please continue
to heed any Road closures.

Lat... Lon 3476 11311 3460 11309 3457 11319 3456 11329
      3465 11330 3475 11330 3476 11321


McCollum